sensor_id;sensor_type;location;lat;lon;timestamp;temperature;humidity
46898;DHT22;32646;50.958;6.258;2023-04-15T00:01:05;3.80;99.90
46898;DHT22;32646;50.958;6.258;2023-04-15T00:03:32;3.70;99.90
46898;DHT22;32646;50.958;6.258;2023-04-15T00:05:59;3.80;99.90
46898;DHT22;32646;50.958;6.258;2023-04-15T00:08:25;3.70;99.90
46898;DHT22;32646;50.958;6.258;2023-04-15T00:10:52;3.60;99.90
46898;DHT22;32646;50.958;6.258;2023-04-15T00:13:18;3.50;99.90
46898;DHT22;32646;50.958;6.258;2023-04-15T00:15:45;3.40;99.90
46898;DHT22;32646;50.958;6.258;2023-04-15T00:18:12;3.40;99.90
46898;DHT22;32646;50.958;6.258;2023-04-15T00:20:38;3.30;99.90
46898;DHT22;32646;50.958;6.258;2023-04-15T00:23:05;3.30;99.90
46898;DHT22;32646;50.958;6.258;2023-04-15T00:25:31;3.30;99.90
46898;DHT22;32646;50.958;6.258;2023-04-15T00:27:58;3.20;99.90
46898;DHT22;32646;50.958;6.258;2023-04-15T00:30:24;3.20;99.90
46898;DHT22;32646;50.958;6.258;2023-04-15T00:32:51;3.10;99.90
46898;DHT22;32646;50.958;6.258;2023-04-15T00:35:17;3.10;99.90
46898;DHT22;32646;50.958;6.258;2023-04-15T00:37:44;3.00;99.90
46898;DHT22;32646;50.958;6.258;2023-04-15T00:40:12;2.90;99.90
46898;DHT22;32646;50.958;6.258;2023-04-15T00:42:39;2.90;99.90
46898;DHT22;32646;50.958;6.258;2023-04-15T00:45:06;3.00;99.90
46898;DHT22;32646;50.958;6.258;2023-04-15T00:47:34;3.00;99.90
46898;DHT22;32646;50.958;6.258;2023-04-15T00:50:02;3.10;99.90
46898;DHT22;32646;50.958;6.258;2023-04-15T00:52:28;3.20;99.90
46898;DHT22;32646;50.958;6.258;2023-04-15T00:54:55;3.10;99.90
46898;DHT22;32646;50.958;6.258;2023-04-15T00:57:21;3.00;99.90
46898;DHT22;32646;50.958;6.258;2023-04-15T00:59:48;3.00;99.90
46898;DHT22;32646;50.958;6.258;2023-04-15T01:02:15;3.00;99.90
46898;DHT22;32646;50.958;6.258;2023-04-15T01:04:42;3.20;99.90
46898;DHT22;32646;50.958;6.258;2023-04-15T01:07:08;3.30;99.90
46898;DHT22;32646;50.958;6.258;2023-04-15T01:09:35;3.20;99.90
46898;DHT22;32646;50.958;6.258;2023-04-15T01:12:02;3.20;99.90
46898;DHT22;32646;50.958;6.258;2023-04-15T01:14:29;3.20;99.90
46898;DHT22;32646;50.958;6.258;2023-04-15T01:16:55;3.10;99.90
46898;DHT22;32646;50.958;6.258;2023-04-15T01:19:22;3.00;99.90
46898;DHT22;32646;50.958;6.258;2023-04-15T01:21:48;2.90;99.90
46898;DHT22;32646;50.958;6.258;2023-04-15T01:24:16;2.80;99.90
46898;DHT22;32646;50.958;6.258;2023-04-15T01:26:44;2.70;99.90
46898;DHT22;32646;50.958;6.258;2023-04-15T01:29:10;2.70;99.90
46898;DHT22;32646;50.958;6.258;2023-04-15T01:31:37;2.70;99.90
46898;DHT22;32646;50.958;6.258;2023-04-15T01:34:04;2.70;99.90
46898;DHT22;32646;50.958;6.258;2023-04-15T01:36:30;2.90;99.90
46898;DHT22;32646;50.958;6.258;2023-04-15T01:38:57;2.80;99.90
46898;DHT22;32646;50.958;6.258;2023-04-15T01:41:25;2.60;99.90
46898;DHT22;32646;50.958;6.258;2023-04-15T01:43:52;2.60;99.90
46898;DHT22;32646;50.958;6.258;2023-04-15T01:46:19;2.70;99.90
46898;DHT22;32646;50.958;6.258;2023-04-15T01:48:45;2.80;99.90
46898;DHT22;32646;50.958;6.258;2023-04-15T01:51:12;2.80;99.90
46898;DHT22;32646;50.958;6.258;2023-04-15T01:53:38;2.70;99.90
46898;DHT22;32646;50.958;6.258;2023-04-15T01:56:05;2.80;99.90
46898;DHT22;32646;50.958;6.258;2023-04-15T01:58:32;2.80;99.90
46898;DHT22;32646;50.958;6.258;2023-04-15T02:00:58;2.70;99.90
46898;DHT22;32646;50.958;6.258;2023-04-15T02:03:25;2.70;99.90
46898;DHT22;32646;50.958;6.258;2023-04-15T02:05:52;2.60;99.90
46898;DHT22;32646;50.958;6.258;2023-04-15T02:08:18;2.60;99.90
46898;DHT22;32646;50.958;6.258;2023-04-15T02:10:45;2.60;99.90
46898;DHT22;32646;50.958;6.258;2023-04-15T02:13:11;2.70;99.90
46898;DHT22;32646;50.958;6.258;2023-04-15T02:15:38;2.60;99.90
46898;DHT22;32646;50.958;6.258;2023-04-15T02:18:04;2.70;99.90
46898;DHT22;32646;50.958;6.258;2023-04-15T02:20:31;2.60;99.90
46898;DHT22;32646;50.958;6.258;2023-04-15T02:22:58;2.50;99.90
46898;DHT22;32646;50.958;6.258;2023-04-15T02:25:24;2.40;99.90
46898;DHT22;32646;50.958;6.258;2023-04-15T02:27:50;2.40;99.90
46898;DHT22;32646;50.958;6.258;2023-04-15T02:30:17;2.40;99.90
46898;DHT22;32646;50.958;6.258;2023-04-15T02:32:44;2.40;99.90
46898;DHT22;32646;50.958;6.258;2023-04-15T02:35:11;2.30;99.90
46898;DHT22;32646;50.958;6.258;2023-04-15T02:37:38;2.10;99.90
46898;DHT22;32646;50.958;6.258;2023-04-15T02:40:13;2.00;99.90
46898;DHT22;32646;50.958;6.258;2023-04-15T02:42:40;1.90;99.90
46898;DHT22;32646;50.958;6.258;2023-04-15T02:45:07;1.80;99.90
46898;DHT22;32646;50.958;6.258;2023-04-15T02:47:34;1.90;99.90
46898;DHT22;32646;50.958;6.258;2023-04-15T02:50:06;1.90;99.90
46898;DHT22;32646;50.958;6.258;2023-04-15T02:52:33;1.90;99.90
46898;DHT22;32646;50.958;6.258;2023-04-15T02:54:59;1.80;99.90
46898;DHT22;32646;50.958;6.258;2023-04-15T02:57:26;1.80;99.90
46898;DHT22;32646;50.958;6.258;2023-04-15T02:59:53;1.80;99.90
46898;DHT22;32646;50.958;6.258;2023-04-15T03:02:20;1.80;99.90
46898;DHT22;32646;50.958;6.258;2023-04-15T03:04:46;1.80;99.90
46898;DHT22;32646;50.958;6.258;2023-04-15T03:07:13;1.90;99.90
46898;DHT22;32646;50.958;6.258;2023-04-15T03:09:39;1.90;99.90
46898;DHT22;32646;50.958;6.258;2023-04-15T03:12:06;1.90;99.90
46898;DHT22;32646;50.958;6.258;2023-04-15T03:14:32;1.90;99.90
46898;DHT22;32646;50.958;6.258;2023-04-15T03:16:59;1.90;99.90
46898;DHT22;32646;50.958;6.258;2023-04-15T03:19:26;1.80;99.90
46898;DHT22;32646;50.958;6.258;2023-04-15T03:21:52;1.80;99.90
46898;DHT22;32646;50.958;6.258;2023-04-15T03:24:19;1.80;99.90
46898;DHT22;32646;50.958;6.258;2023-04-15T03:26:45;1.80;99.90
46898;DHT22;32646;50.958;6.258;2023-04-15T03:29:12;1.80;99.90
46898;DHT22;32646;50.958;6.258;2023-04-15T03:31:38;1.70;99.90
46898;DHT22;32646;50.958;6.258;2023-04-15T03:34:05;1.70;99.90
46898;DHT22;32646;50.958;6.258;2023-04-15T03:36:32;1.60;99.90
46898;DHT22;32646;50.958;6.258;2023-04-15T03:38:58;1.60;99.90
46898;DHT22;32646;50.958;6.258;2023-04-15T03:41:25;1.60;99.90
46898;DHT22;32646;50.958;6.258;2023-04-15T03:43:51;1.60;99.90
46898;DHT22;32646;50.958;6.258;2023-04-15T03:46:18;1.50;99.90
46898;DHT22;32646;50.958;6.258;2023-04-15T03:48:46;1.50;99.90
46898;DHT22;32646;50.958;6.258;2023-04-15T03:51:12;1.50;99.90
46898;DHT22;32646;50.958;6.258;2023-04-15T03:53:39;1.40;99.90
46898;DHT22;32646;50.958;6.258;2023-04-15T03:56:05;1.30;99.90
46898;DHT22;32646;50.958;6.258;2023-04-15T03:58:32;1.20;99.90
46898;DHT22;32646;50.958;6.258;2023-04-15T04:00:58;1.30;99.90
46898;DHT22;32646;50.958;6.258;2023-04-15T04:03:25;1.20;99.90
46898;DHT22;32646;50.958;6.258;2023-04-15T04:05:52;1.30;99.90
46898;DHT22;32646;50.958;6.258;2023-04-15T04:08:18;1.30;99.90
46898;DHT22;32646;50.958;6.258;2023-04-15T04:10:45;1.40;99.90
46898;DHT22;32646;50.958;6.258;2023-04-15T04:13:11;1.40;99.90
46898;DHT22;32646;50.958;6.258;2023-04-15T04:15:38;1.40;99.90
46898;DHT22;32646;50.958;6.258;2023-04-15T04:18:05;1.30;99.90
46898;DHT22;32646;50.958;6.258;2023-04-15T04:20:31;1.30;99.90
46898;DHT22;32646;50.958;6.258;2023-04-15T04:22:58;1.30;99.90
46898;DHT22;32646;50.958;6.258;2023-04-15T04:25:25;1.30;99.90
46898;DHT22;32646;50.958;6.258;2023-04-15T04:27:51;1.30;99.90
46898;DHT22;32646;50.958;6.258;2023-04-15T04:30:18;1.20;99.90
46898;DHT22;32646;50.958;6.258;2023-04-15T04:32:44;1.20;99.90
46898;DHT22;32646;50.958;6.258;2023-04-15T04:35:11;1.30;99.90
46898;DHT22;32646;50.958;6.258;2023-04-15T04:37:37;1.50;99.90
46898;DHT22;32646;50.958;6.258;2023-04-15T04:40:04;1.50;99.90
46898;DHT22;32646;50.958;6.258;2023-04-15T04:42:31;1.40;99.90
46898;DHT22;32646;50.958;6.258;2023-04-15T04:44:58;1.30;99.90
46898;DHT22;32646;50.958;6.258;2023-04-15T04:47:24;1.30;99.90
46898;DHT22;32646;50.958;6.258;2023-04-15T04:49:51;1.40;99.90
46898;DHT22;32646;50.958;6.258;2023-04-15T04:52:17;1.40;99.90
46898;DHT22;32646;50.958;6.258;2023-04-15T04:54:44;1.40;99.90
46898;DHT22;32646;50.958;6.258;2023-04-15T04:57:10;1.40;99.90
46898;DHT22;32646;50.958;6.258;2023-04-15T04:59:37;1.60;99.90
46898;DHT22;32646;50.958;6.258;2023-04-15T05:02:03;1.70;99.90
46898;DHT22;32646;50.958;6.258;2023-04-15T05:04:30;1.90;99.90
46898;DHT22;32646;50.958;6.258;2023-04-15T05:06:57;1.70;99.90
46898;DHT22;32646;50.958;6.258;2023-04-15T05:09:24;1.60;99.90
46898;DHT22;32646;50.958;6.258;2023-04-15T05:11:50;1.50;99.90
46898;DHT22;32646;50.958;6.258;2023-04-15T05:14:17;1.50;99.90
46898;DHT22;32646;50.958;6.258;2023-04-15T05:16:43;1.40;99.90
46898;DHT22;32646;50.958;6.258;2023-04-15T05:19:09;1.50;99.90
46898;DHT22;32646;50.958;6.258;2023-04-15T05:21:36;1.70;99.90
46898;DHT22;32646;50.958;6.258;2023-04-15T05:24:05;1.70;99.90
46898;DHT22;32646;50.958;6.258;2023-04-15T05:26:31;1.80;99.90
46898;DHT22;32646;50.958;6.258;2023-04-15T05:28:58;1.90;99.90
46898;DHT22;32646;50.958;6.258;2023-04-15T05:31:25;1.90;99.90
46898;DHT22;32646;50.958;6.258;2023-04-15T05:33:51;2.00;99.90
46898;DHT22;32646;50.958;6.258;2023-04-15T05:36:18;2.20;99.90
46898;DHT22;32646;50.958;6.258;2023-04-15T05:38:44;2.30;99.90
46898;DHT22;32646;50.958;6.258;2023-04-15T05:41:11;2.40;99.90
46898;DHT22;32646;50.958;6.258;2023-04-15T05:43:37;2.40;99.90
46898;DHT22;32646;50.958;6.258;2023-04-15T05:46:04;2.40;99.90
46898;DHT22;32646;50.958;6.258;2023-04-15T05:48:31;2.60;99.90
46898;DHT22;32646;50.958;6.258;2023-04-15T05:50:57;2.70;99.90
46898;DHT22;32646;50.958;6.258;2023-04-15T05:53:24;3.00;99.90
46898;DHT22;32646;50.958;6.258;2023-04-15T05:55:50;3.20;99.90
46898;DHT22;32646;50.958;6.258;2023-04-15T05:58:17;3.50;99.90
46898;DHT22;32646;50.958;6.258;2023-04-15T06:00:44;3.60;99.90
46898;DHT22;32646;50.958;6.258;2023-04-15T06:03:10;3.80;99.90
46898;DHT22;32646;50.958;6.258;2023-04-15T06:05:37;4.00;99.90
46898;DHT22;32646;50.958;6.258;2023-04-15T06:08:04;4.20;99.90
46898;DHT22;32646;50.958;6.258;2023-04-15T06:10:30;4.40;99.90
46898;DHT22;32646;50.958;6.258;2023-04-15T06:12:57;4.60;99.90
46898;DHT22;32646;50.958;6.258;2023-04-15T06:15:23;4.90;99.90
46898;DHT22;32646;50.958;6.258;2023-04-15T06:17:50;5.10;99.90
46898;DHT22;32646;50.958;6.258;2023-04-15T06:20:16;5.30;99.90
46898;DHT22;32646;50.958;6.258;2023-04-15T06:22:43;5.40;99.90
46898;DHT22;32646;50.958;6.258;2023-04-15T06:25:10;5.70;99.90
46898;DHT22;32646;50.958;6.258;2023-04-15T06:27:36;5.80;99.90
46898;DHT22;32646;50.958;6.258;2023-04-15T06:30:03;6.00;99.90
46898;DHT22;32646;50.958;6.258;2023-04-15T06:32:31;6.10;99.90
46898;DHT22;32646;50.958;6.258;2023-04-15T06:34:58;6.30;99.90
46898;DHT22;32646;50.958;6.258;2023-04-15T06:37:24;6.60;99.90
46898;DHT22;32646;50.958;6.258;2023-04-15T06:39:51;6.50;99.90
46898;DHT22;32646;50.958;6.258;2023-04-15T06:42:17;6.60;99.90
46898;DHT22;32646;50.958;6.258;2023-04-15T06:44:44;6.70;99.90
46898;DHT22;32646;50.958;6.258;2023-04-15T06:47:10;6.80;99.90
46898;DHT22;32646;50.958;6.258;2023-04-15T06:49:37;6.80;99.90
46898;DHT22;32646;50.958;6.258;2023-04-15T06:52:04;7.00;99.90
46898;DHT22;32646;50.958;6.258;2023-04-15T06:54:30;7.20;99.90
46898;DHT22;32646;50.958;6.258;2023-04-15T06:56:57;7.40;99.90
46898;DHT22;32646;50.958;6.258;2023-04-15T06:59:23;7.50;99.90
46898;DHT22;32646;50.958;6.258;2023-04-15T07:01:50;7.70;99.90
46898;DHT22;32646;50.958;6.258;2023-04-15T07:04:16;7.80;99.90
46898;DHT22;32646;50.958;6.258;2023-04-15T07:06:43;8.10;99.90
46898;DHT22;32646;50.958;6.258;2023-04-15T07:09:10;8.20;99.90
46898;DHT22;32646;50.958;6.258;2023-04-15T07:11:36;8.30;99.90
46898;DHT22;32646;50.958;6.258;2023-04-15T07:14:03;8.50;99.90
46898;DHT22;32646;50.958;6.258;2023-04-15T07:16:29;8.60;99.90
46898;DHT22;32646;50.958;6.258;2023-04-15T07:18:56;8.60;99.90
46898;DHT22;32646;50.958;6.258;2023-04-15T07:21:23;8.60;99.90
46898;DHT22;32646;50.958;6.258;2023-04-15T07:23:50;8.60;99.90
46898;DHT22;32646;50.958;6.258;2023-04-15T07:26:16;8.60;99.90
46898;DHT22;32646;50.958;6.258;2023-04-15T07:28:43;8.70;99.90
46898;DHT22;32646;50.958;6.258;2023-04-15T07:31:09;8.80;99.90
46898;DHT22;32646;50.958;6.258;2023-04-15T07:33:36;8.80;99.90
46898;DHT22;32646;50.958;6.258;2023-04-15T07:36:03;8.80;99.90
46898;DHT22;32646;50.958;6.258;2023-04-15T07:38:29;8.90;99.90
46898;DHT22;32646;50.958;6.258;2023-04-15T07:40:56;9.00;99.90
46898;DHT22;32646;50.958;6.258;2023-04-15T07:43:22;9.00;99.90
46898;DHT22;32646;50.958;6.258;2023-04-15T07:45:49;9.10;99.90
46898;DHT22;32646;50.958;6.258;2023-04-15T07:48:15;9.20;99.90
46898;DHT22;32646;50.958;6.258;2023-04-15T07:50:42;9.40;99.90
46898;DHT22;32646;50.958;6.258;2023-04-15T07:53:08;9.50;99.90
46898;DHT22;32646;50.958;6.258;2023-04-15T07:55:35;9.60;99.90
46898;DHT22;32646;50.958;6.258;2023-04-15T07:58:01;9.70;99.90
46898;DHT22;32646;50.958;6.258;2023-04-15T08:00:28;9.80;99.90
46898;DHT22;32646;50.958;6.258;2023-04-15T08:02:55;9.80;99.90
46898;DHT22;32646;50.958;6.258;2023-04-15T08:05:22;10.00;99.90
46898;DHT22;32646;50.958;6.258;2023-04-15T08:07:49;10.00;99.90
46898;DHT22;32646;50.958;6.258;2023-04-15T08:10:15;10.10;99.90
46898;DHT22;32646;50.958;6.258;2023-04-15T08:12:42;10.30;99.90
46898;DHT22;32646;50.958;6.258;2023-04-15T08:15:09;10.60;99.90
46898;DHT22;32646;50.958;6.258;2023-04-15T08:17:35;11.00;99.90
46898;DHT22;32646;50.958;6.258;2023-04-15T08:20:02;11.00;99.90
46898;DHT22;32646;50.958;6.258;2023-04-15T08:22:29;11.00;99.90
46898;DHT22;32646;50.958;6.258;2023-04-15T08:24:55;11.30;99.90
46898;DHT22;32646;50.958;6.258;2023-04-15T08:27:22;11.60;99.90
46898;DHT22;32646;50.958;6.258;2023-04-15T08:29:49;11.70;99.90
46898;DHT22;32646;50.958;6.258;2023-04-15T08:32:15;11.90;99.90
46898;DHT22;32646;50.958;6.258;2023-04-15T08:34:42;12.30;99.90
46898;DHT22;32646;50.958;6.258;2023-04-15T08:37:08;12.60;98.70
46898;DHT22;32646;50.958;6.258;2023-04-15T08:39:36;13.00;96.40
46898;DHT22;32646;50.958;6.258;2023-04-15T08:42:06;12.60;95.20
46898;DHT22;32646;50.958;6.258;2023-04-15T08:44:36;12.70;96.10
46898;DHT22;32646;50.958;6.258;2023-04-15T08:47:06;12.70;97.40
46898;DHT22;32646;50.958;6.258;2023-04-15T08:49:38;12.90;96.20
46898;DHT22;32646;50.958;6.258;2023-04-15T08:52:05;12.80;96.80
46898;DHT22;32646;50.958;6.258;2023-04-15T08:54:33;12.70;97.40
46898;DHT22;32646;50.958;6.258;2023-04-15T08:57:00;12.90;98.30
46898;DHT22;32646;50.958;6.258;2023-04-15T08:59:29;13.30;95.80
46898;DHT22;32646;50.958;6.258;2023-04-15T09:01:57;13.30;92.30
46898;DHT22;32646;50.958;6.258;2023-04-15T09:04:23;13.50;91.30
46898;DHT22;32646;50.958;6.258;2023-04-15T09:06:50;13.30;90.90
46898;DHT22;32646;50.958;6.258;2023-04-15T09:09:18;13.70;92.20
46898;DHT22;32646;50.958;6.258;2023-04-15T09:11:45;13.30;92.30
46898;DHT22;32646;50.958;6.258;2023-04-15T09:14:12;13.10;93.40
46898;DHT22;32646;50.958;6.258;2023-04-15T09:17:01;13.20;92.20
46898;DHT22;32646;50.958;6.258;2023-04-15T09:19:29;13.50;93.30
46898;DHT22;32646;50.958;6.258;2023-04-15T09:21:57;14.10;93.20
46898;DHT22;32646;50.958;6.258;2023-04-15T09:24:32;14.60;91.00
46898;DHT22;32646;50.958;6.258;2023-04-15T09:26:59;14.10;90.10
46898;DHT22;32646;50.958;6.258;2023-04-15T09:29:26;14.20;90.50
46898;DHT22;32646;50.958;6.258;2023-04-15T09:31:52;14.40;86.70
46898;DHT22;32646;50.958;6.258;2023-04-15T09:34:19;14.90;86.90
46898;DHT22;32646;50.958;6.258;2023-04-15T09:39:16;14.80;79.90
46898;DHT22;32646;50.958;6.258;2023-04-15T09:41:42;15.00;79.90
46898;DHT22;32646;50.958;6.258;2023-04-15T09:44:24;15.20;80.80
46898;DHT22;32646;50.958;6.258;2023-04-15T09:46:51;15.50;80.80
46898;DHT22;32646;50.958;6.258;2023-04-15T09:49:17;15.80;77.80
46898;DHT22;32646;50.958;6.258;2023-04-15T09:51:44;15.80;74.90
46898;DHT22;32646;50.958;6.258;2023-04-15T09:54:37;16.10;76.30
46898;DHT22;32646;50.958;6.258;2023-04-15T09:57:08;16.00;76.60
46898;DHT22;32646;50.958;6.258;2023-04-15T09:59:35;15.80;78.60
46898;DHT22;32646;50.958;6.258;2023-04-15T10:02:05;15.30;81.10
46898;DHT22;32646;50.958;6.258;2023-04-15T10:04:38;14.90;80.60
46898;DHT22;32646;50.958;6.258;2023-04-15T10:07:07;14.80;83.20
46898;DHT22;32646;50.958;6.258;2023-04-15T10:09:36;14.90;80.00
46898;DHT22;32646;50.958;6.258;2023-04-15T10:12:04;14.60;83.30
46898;DHT22;32646;50.958;6.258;2023-04-15T10:14:34;14.30;81.80
46898;DHT22;32646;50.958;6.258;2023-04-15T10:17:01;13.90;85.90
46898;DHT22;32646;50.958;6.258;2023-04-15T10:19:33;13.60;84.30
46898;DHT22;32646;50.958;6.258;2023-04-15T10:22:02;13.50;81.60
46898;DHT22;32646;50.958;6.258;2023-04-15T10:24:32;13.30;82.40
46898;DHT22;32646;50.958;6.258;2023-04-15T10:26:59;13.50;82.70
46898;DHT22;32646;50.958;6.258;2023-04-15T10:29:26;13.50;86.80
46898;DHT22;32646;50.958;6.258;2023-04-15T10:31:54;13.70;82.50
46898;DHT22;32646;50.958;6.258;2023-04-15T10:34:23;13.90;82.90
46898;DHT22;32646;50.958;6.258;2023-04-15T10:36:50;13.80;82.40
46898;DHT22;32646;50.958;6.258;2023-04-15T10:42:15;13.50;86.90
46898;DHT22;32646;50.958;6.258;2023-04-15T10:44:44;13.60;87.50
46898;DHT22;32646;50.958;6.258;2023-04-15T10:47:17;13.70;84.40
46898;DHT22;32646;50.958;6.258;2023-04-15T10:49:58;13.80;81.20
46898;DHT22;32646;50.958;6.258;2023-04-15T10:52:26;13.70;83.00
46898;DHT22;32646;50.958;6.258;2023-04-15T10:55:23;14.00;81.50
46898;DHT22;32646;50.958;6.258;2023-04-15T10:57:52;14.50;78.80
46898;DHT22;32646;50.958;6.258;2023-04-15T11:00:21;14.30;80.00
46898;DHT22;32646;50.958;6.258;2023-04-15T11:03:04;14.30;85.20
46898;DHT22;32646;50.958;6.258;2023-04-15T11:08:08;14.30;80.60
46898;DHT22;32646;50.958;6.258;2023-04-15T11:13:02;14.50;81.80
46898;DHT22;32646;50.958;6.258;2023-04-15T11:15:33;14.80;81.40
46898;DHT22;32646;50.958;6.258;2023-04-15T11:20:49;15.20;76.10
46898;DHT22;32646;50.958;6.258;2023-04-15T11:23:37;15.90;77.20
46898;DHT22;32646;50.958;6.258;2023-04-15T11:26:05;16.10;72.90
46898;DHT22;32646;50.958;6.258;2023-04-15T11:28:33;16.00;72.40
46898;DHT22;32646;50.958;6.258;2023-04-15T11:31:10;15.70;73.30
46898;DHT22;32646;50.958;6.258;2023-04-15T11:36:13;15.10;76.80
46898;DHT22;32646;50.958;6.258;2023-04-15T11:38:43;15.30;77.90
46898;DHT22;32646;50.958;6.258;2023-04-15T11:41:09;15.10;76.70
46898;DHT22;32646;50.958;6.258;2023-04-15T11:43:36;15.00;79.80
46898;DHT22;32646;50.958;6.258;2023-04-15T11:46:03;14.90;81.90
46898;DHT22;32646;50.958;6.258;2023-04-15T11:48:34;14.70;77.70
46898;DHT22;32646;50.958;6.258;2023-04-15T11:51:05;14.70;80.60
46898;DHT22;32646;50.958;6.258;2023-04-15T11:53:43;14.70;80.00
46898;DHT22;32646;50.958;6.258;2023-04-15T11:56:15;14.40;80.20
46898;DHT22;32646;50.958;6.258;2023-04-15T11:58:42;14.60;80.70
46898;DHT22;32646;50.958;6.258;2023-04-15T12:01:09;14.80;82.70
46898;DHT22;32646;50.958;6.258;2023-04-15T12:03:38;15.00;82.00
46898;DHT22;32646;50.958;6.258;2023-04-15T12:11:19;15.30;78.10
46898;DHT22;32646;50.958;6.258;2023-04-15T12:13:49;15.50;75.40
46898;DHT22;32646;50.958;6.258;2023-04-15T12:16:17;15.60;77.80
46898;DHT22;32646;50.958;6.258;2023-04-15T12:18:49;15.90;78.40
46898;DHT22;32646;50.958;6.258;2023-04-15T12:21:19;15.40;79.30
46898;DHT22;32646;50.958;6.258;2023-04-15T12:23:49;15.40;81.40
46898;DHT22;32646;50.958;6.258;2023-04-15T12:26:17;15.40;82.70
46898;DHT22;32646;50.958;6.258;2023-04-15T12:28:44;15.60;77.90
46898;DHT22;32646;50.958;6.258;2023-04-15T12:31:10;15.10;77.80
46898;DHT22;32646;50.958;6.258;2023-04-15T12:33:37;15.30;78.20
46898;DHT22;32646;50.958;6.258;2023-04-15T12:36:04;15.40;79.30
46898;DHT22;32646;50.958;6.258;2023-04-15T12:38:31;15.60;79.40
46898;DHT22;32646;50.958;6.258;2023-04-15T12:40:58;15.60;85.60
46898;DHT22;32646;50.958;6.258;2023-04-15T12:43:24;15.80;76.80
46898;DHT22;32646;50.958;6.258;2023-04-15T12:45:51;16.60;73.50
46898;DHT22;32646;50.958;6.258;2023-04-15T12:48:17;16.50;76.00
46898;DHT22;32646;50.958;6.258;2023-04-15T12:50:44;16.10;74.80
46898;DHT22;32646;50.958;6.258;2023-04-15T12:53:10;15.90;75.60
46898;DHT22;32646;50.958;6.258;2023-04-15T12:55:37;16.40;74.40
46898;DHT22;32646;50.958;6.258;2023-04-15T12:58:03;16.40;74.10
46898;DHT22;32646;50.958;6.258;2023-04-15T13:00:33;16.50;75.10
46898;DHT22;32646;50.958;6.258;2023-04-15T13:02:59;17.30;71.80
46898;DHT22;32646;50.958;6.258;2023-04-15T13:05:26;16.90;70.10
46898;DHT22;32646;50.958;6.258;2023-04-15T13:07:52;16.30;72.10
46898;DHT22;32646;50.958;6.258;2023-04-15T13:10:19;15.60;73.80
46898;DHT22;32646;50.958;6.258;2023-04-15T13:12:45;15.20;76.00
46898;DHT22;32646;50.958;6.258;2023-04-15T13:15:13;14.90;76.40
46898;DHT22;32646;50.958;6.258;2023-04-15T13:17:40;15.40;76.10
46898;DHT22;32646;50.958;6.258;2023-04-15T13:20:07;15.80;76.70
46898;DHT22;32646;50.958;6.258;2023-04-15T13:22:33;15.70;75.30
46898;DHT22;32646;50.958;6.258;2023-04-15T13:25:00;16.00;74.80
46898;DHT22;32646;50.958;6.258;2023-04-15T13:27:26;16.10;76.30
46898;DHT22;32646;50.958;6.258;2023-04-15T13:29:53;16.20;73.90
46898;DHT22;32646;50.958;6.258;2023-04-15T13:32:20;15.60;76.50
46898;DHT22;32646;50.958;6.258;2023-04-15T13:34:46;15.50;76.70
46898;DHT22;32646;50.958;6.258;2023-04-15T13:37:13;15.00;78.40
46898;DHT22;32646;50.958;6.258;2023-04-15T13:39:39;14.60;80.50
46898;DHT22;32646;50.958;6.258;2023-04-15T13:42:06;14.30;83.00
46898;DHT22;32646;50.958;6.258;2023-04-15T13:44:33;14.30;84.80
46898;DHT22;32646;50.958;6.258;2023-04-15T13:46:59;14.10;85.70
46898;DHT22;32646;50.958;6.258;2023-04-15T13:49:26;14.20;85.10
46898;DHT22;32646;50.958;6.258;2023-04-15T13:51:52;14.30;85.40
46898;DHT22;32646;50.958;6.258;2023-04-15T13:54:19;14.40;86.30
46898;DHT22;32646;50.958;6.258;2023-04-15T13:56:45;14.10;84.10
46898;DHT22;32646;50.958;6.258;2023-04-15T13:59:12;13.70;83.00
46898;DHT22;32646;50.958;6.258;2023-04-15T14:01:38;13.50;85.10
46898;DHT22;32646;50.958;6.258;2023-04-15T14:04:05;13.80;85.90
46898;DHT22;32646;50.958;6.258;2023-04-15T14:06:32;14.30;80.80
46898;DHT22;32646;50.958;6.258;2023-04-15T14:08:59;14.90;79.20
46898;DHT22;32646;50.958;6.258;2023-04-15T14:11:25;15.20;77.80
46898;DHT22;32646;50.958;6.258;2023-04-15T14:13:52;15.10;77.60
46898;DHT22;32646;50.958;6.258;2023-04-15T14:16:18;14.90;77.00
46898;DHT22;32646;50.958;6.258;2023-04-15T14:18:45;14.80;78.10
46898;DHT22;32646;50.958;6.258;2023-04-15T14:21:12;14.50;82.10
46898;DHT22;32646;50.958;6.258;2023-04-15T14:23:39;14.60;81.90
46898;DHT22;32646;50.958;6.258;2023-04-15T14:26:06;14.20;81.50
46898;DHT22;32646;50.958;6.258;2023-04-15T14:28:33;13.80;84.30
46898;DHT22;32646;50.958;6.258;2023-04-15T14:30:59;13.70;84.20
46898;DHT22;32646;50.958;6.258;2023-04-15T14:33:26;13.70;86.40
46898;DHT22;32646;50.958;6.258;2023-04-15T14:35:52;13.70;87.80
46898;DHT22;32646;50.958;6.258;2023-04-15T14:38:19;13.90;84.00
46898;DHT22;32646;50.958;6.258;2023-04-15T14:40:45;14.00;86.30
46898;DHT22;32646;50.958;6.258;2023-04-15T14:43:12;13.80;86.70
46898;DHT22;32646;50.958;6.258;2023-04-15T14:45:39;14.00;85.50
46898;DHT22;32646;50.958;6.258;2023-04-15T14:48:09;14.30;84.20
46898;DHT22;32646;50.958;6.258;2023-04-15T14:50:36;14.40;83.10
46898;DHT22;32646;50.958;6.258;2023-04-15T14:53:03;15.00;81.70
46898;DHT22;32646;50.958;6.258;2023-04-15T14:55:29;15.50;78.60
46898;DHT22;32646;50.958;6.258;2023-04-15T14:57:56;15.60;77.20
46898;DHT22;32646;50.958;6.258;2023-04-15T15:00:22;15.60;80.40
46898;DHT22;32646;50.958;6.258;2023-04-15T15:02:49;15.80;75.50
46898;DHT22;32646;50.958;6.258;2023-04-15T15:05:15;15.30;76.40
46898;DHT22;32646;50.958;6.258;2023-04-15T15:07:42;14.90;78.30
46898;DHT22;32646;50.958;6.258;2023-04-15T15:10:09;14.50;77.50
46898;DHT22;32646;50.958;6.258;2023-04-15T15:12:35;14.20;80.50
46898;DHT22;32646;50.958;6.258;2023-04-15T15:15:02;14.30;80.50
46898;DHT22;32646;50.958;6.258;2023-04-15T15:17:45;14.50;81.00
46898;DHT22;32646;50.958;6.258;2023-04-15T15:20:11;14.40;81.80
46898;DHT22;32646;50.958;6.258;2023-04-15T15:22:38;14.30;80.40
46898;DHT22;32646;50.958;6.258;2023-04-15T15:25:05;14.10;83.10
46898;DHT22;32646;50.958;6.258;2023-04-15T15:27:31;14.20;80.00
46898;DHT22;32646;50.958;6.258;2023-04-15T15:29:58;14.20;82.10
46898;DHT22;32646;50.958;6.258;2023-04-15T15:32:25;14.20;80.50
46898;DHT22;32646;50.958;6.258;2023-04-15T15:34:51;14.20;81.40
46898;DHT22;32646;50.958;6.258;2023-04-15T15:37:18;14.30;82.00
46898;DHT22;32646;50.958;6.258;2023-04-15T15:39:44;14.20;80.50
46898;DHT22;32646;50.958;6.258;2023-04-15T15:42:11;14.20;82.30
46898;DHT22;32646;50.958;6.258;2023-04-15T15:44:37;14.50;82.20
46898;DHT22;32646;50.958;6.258;2023-04-15T15:47:07;14.60;82.30
46898;DHT22;32646;50.958;6.258;2023-04-15T15:49:33;14.60;82.90
46898;DHT22;32646;50.958;6.258;2023-04-15T15:52:00;14.50;81.60
46898;DHT22;32646;50.958;6.258;2023-04-15T15:54:26;14.30;80.50
46898;DHT22;32646;50.958;6.258;2023-04-15T15:56:53;13.80;82.90
46898;DHT22;32646;50.958;6.258;2023-04-15T15:59:19;13.60;84.50